Aérodrome :
LOGIN :

S'inscrire | Disclaimer

   EN    FR    IT 

 










Légende :    VFR   VFR Marginal   IFR   IFR Intensif   IFR Très Intensif
Visi : 
Plafond : 
>= 8 km
>= 3000ft
5 à 8 km
1000 à 3000 ft
1500m à 5 km
500 à 1000 ft
800 à 1500m
200 à 500 ft
< 800m
< 200 ft
Symboles :   Orages  Brouillard  Fortes neiges  Fortes précipitations  Vent > 20 kt
SIGMETs :   Divers  Orages  Givrage  Turbulence  Onde Orograph.  Cendres Volcan.







- Altitude de l'aérodrome : 48 ft
- Code IATA : PSR


LIBP - Abruzzo Pescara

DERNIER METAR :
  • 200050Z AUTO 31008KT 280V340 9999 NCD 11/06 Q1017

METARs EXPIRÉS :
  • 192350Z AUTO 21005KT 9999 FEW060/// 06/04 Q1016
  • 192250Z AUTO 22005KT 9000 BKN061/// 07/05 Q1016

TAF TAF LIBP
Valide du 20 à 00h jusqu'au 21 à 00h UTC


192300Z 2000/2024 30008KT 9999 SCT030
TEMPO 2000/2003 SHRA
Pas de NOTAMs connus pour ce terrain.
1 SIGMET publié pour la FIR Brindisi (LIBB) :
 
Orages noyés dans la masse
LIBB SIGMET 1 VALID 200004/200300 LIIB
LIBB BRINDISI FIR EMBD TS OBS WI N4222 E01503 - N4231 E01556 - N4105 E01854 - N3955 E01858 - N4134 E01529 - N4222 E01503 TOP FL250 MOV SE NC=



MET'MAP, la Météo Aéronautique d'un coup d'oeil ! - Copyright ORBIFLY Décembre 2007 - Disclaimer

ORBIFLY MET'MAP TEAM :

Programmation & Développement : Alexandra Zaïnal
Conception & Développement : Baudouin d'Aumeries
Co-Programmation & Développement : Marc-Olivier Méhu
Soutien technique & logistique : Manuel Goepfert

Contact : metmap@orbifly.com




SOURCES & CREDITS :

   NOAA